Nearby METAR Reports

 

KLOM - Philly Wings F, Pennsylvania, USA
Distance from station: SW 6mi, 10km
Updated: Sun, 26-Oct-2014 1:35am EDT
Mostly cloudy
Mostly cloudy
 Wind from calm
Wind: Calm
Temperature: 63°F , 17°C
Dew Point: 46°F , 8°C
Humidity: 56%
Barometer: 29.60 inHg , 1002.4 hPa
Clouds: Mostly cloudy
Visibility: 10 miles , 16 km
Cloud details: Partly cloudy 5500 ft
Partly cloudy 6500 ft
Mostly cloudy 8000 ft
2014/10/26 05:35 KLOM 260535Z AUTO 00000KT 10SM SCT055 SCT065 BKN080 17/08 A2960 RMK AO1
KDYL - Doylestown, Pennsylvania, USA
Distance from station: NNE 10mi, 17km
Updated: Sun, 26-Oct-2014 12:54am EDT
Overcast
Overcast
 Wind from WSW
Wind: WSW 9 mph , 15 km/h
Temperature: 59°F , 15°C
Dew Point: 45°F , 7°C
Humidity: 59%
Barometer: 29.59 inHg , 1002 hPa
Clouds: Overcast
Visibility: 10 miles , 16 km
Cloud details: Overcast 8000 ft
2014/10/26 04:54 KDYL 260454Z AUTO 24008KT 10SM OVC080 15/07 A2959 RMK AO2 SLP019 T01500072 401940033 $
KPNE - Philadelphia/Ne, Pennsylvania, USA
Distance from station: SE 11mi, 18km
Updated: Sun, 26-Oct-2014 12:54am EDT
Overcast
Overcast
 Wind from WSW
Wind: WSW 8 mph , 13 km/h
Temperature: 61°F , 16°C
Dew Point: 43°F , 6°C
Humidity: 52%
Barometer: 29.62 inHg , 1003 hPa
Clouds: Overcast
Visibility: 10 miles , 16 km
Cloud details: Mostly cloudy 8000 ft
Overcast 9000 ft
2014/10/26 04:54 KPNE 260454Z 24007KT 10SM BKN080 OVC090 16/06 A2962 RMK AO2 SLP029 T01560061 402110044
 
KPTW - Pottstown, Pennsylvania, USA
Distance from station: W 20mi, 32km
Updated: Sun, 26-Oct-2014 12:54am EDT
Overcast
Overcast
 Wind from WSW
Wind: WSW 6 mph , 9 km/h
Temperature: 63°F , 17°C
Dew Point: 46°F , 8°C
Humidity: 56%
Barometer: 29.62 inHg , 1003 hPa
Clouds: Overcast
Visibility: 10 miles , 16 km
Cloud details: Overcast 7500 ft
2014/10/26 04:54 KPTW 260454Z AUTO 25005KT 10SM OVC075 17/08 A2962 RMK AO2 SLP027 T01670078 402000039
KTTN - Trenton, New Jersey, USA
Distance from station: ENE 20mi, 32km
Updated: Sun, 26-Oct-2014 12:53am EDT
Overcast
Overcast
 Wind from calm
Wind: Calm
Temperature: 57°F , 14°C
Dew Point: 45°F , 7°C
Humidity: 63%
Barometer: 29.59 inHg , 1002 hPa
Clouds: Overcast
Visibility: 10 miles , 16 km
Cloud details: Few Clouds 5500 ft
Overcast 9500 ft
2014/10/26 04:53 KTTN 260453Z AUTO 00000KT 10SM FEW055 OVC095 14/07 A2959 RMK AO2 SLP013 T01440067 402000039
KUKT - Quakertown Arp, Pennsylvania, USA
Distance from station: NNW 20mi, 32km
Updated: Sun, 26-Oct-2014 1:35am EDT
Mostly cloudy
Mostly cloudy
 Wind from NW
Wind: NW 3 mph , 6 km/h
Temperature: 61°F , 16°C
Dew Point: 46°F , 8°C
Humidity: 59%
Barometer: 29.61 inHg , 1002.7 hPa
Clouds: Mostly cloudy
Visibility: 10 miles , 16 km
Cloud details: Few Clouds 4700 ft
Mostly cloudy 8500 ft
2014/10/26 05:35 KUKT 260535Z AUTO 31003KT 10SM FEW047 BKN085 16/08 A2961 RMK AO1
 
KPHL - Philadelphia, Pennsylvania, USA
Distance from station: S 22mi, 36km
Updated: Sun, 26-Oct-2014 12:54am EDT
Overcast
Overcast
 Wind from SW
Wind: SW 12 mph , 19 km/h
Temperature: 59°F , 15°C
Dew Point: 45°F , 7°C
Humidity: 59%
Barometer: 29.62 inHg , 1003 hPa
Clouds: Overcast
Visibility: 10 miles , 16 km
Cloud details: Few Clouds 5500 ft
Mostly cloudy 6500 ft
Overcast 9000 ft
2014/10/26 04:54 KPHL 260454Z 23010KT 10SM FEW055 BKN065 OVC090 15/07 A2962 RMK AO2 SLP030 T01500072 402110078
KVAY - Mount Holly, New Jersey, USA
Distance from station: SE 25mi, 41km
Updated: Sun, 26-Oct-2014 12:54am EDT
Overcast
Overcast
 Wind from SW
Wind: SW 8 mph , 13 km/h
Temperature: 57°F , 14°C
Dew Point: 43°F , 6°C
Humidity: 59%
Barometer: 29.61 inHg , 1002.7 hPa
Clouds: Overcast
Visibility: 10 miles , 16 km
Cloud details: Mostly cloudy 7000 ft
Overcast 9500 ft
2014/10/26 04:54 KVAY 260454Z AUTO 23007KT 10SM BKN070 OVC095 14/06 A2961 RMK AO2 SLP025 T01440061 402000028
KXLL - Allentown Queen, Pennsylvania, USA
Distance from station: NNW 31mi, 49km
Updated: Sun, 26-Oct-2014 1:35am EDT
Mostly cloudy
Mostly cloudy
 Wind from SSW
Wind: SSW 3 mph , 6 km/h
Temperature: 59°F , 15°C
Dew Point: 46°F , 8°C
Humidity: 63%
Barometer: 29.61 inHg , 1002.7 hPa
Clouds: Mostly cloudy
Visibility: 10 miles , 16 km
Cloud details: Mostly cloudy 10000 ft
2014/10/26 05:35 KXLL 260535Z AUTO 20003KT 10SM BKN100 15/08 A2961 RMK AO2
 
KWRI - Wrightst/Mcguire, New Jersey, USA
Distance from station: ESE 34mi, 54km
Updated: Sun, 26-Oct-2014 12:58am EDT
Few Clouds
Few Clouds
 Wind from WSW
Wind: WSW 9 mph , 15 km/h
Temperature: 55°F , 13°C
Dew Point: 43°F , 6°C
Humidity: 63%
Barometer: 29.58 inHg , 1001.7 hPa
Clouds: Few Clouds
Visibility: 10 miles , 16 km
Cloud details: Few Clouds 9500 ft
2014/10/26 04:58 KWRI 260458Z AUTO 24008KT 10SM FEW095 13/06 A2958 RMK AO2 SLP020 T01250064 402000051 $
KABE - Allentown, Pennsylvania, USA
Distance from station: NNW 35mi, 56km
Updated: Sun, 26-Oct-2014 12:51am EDT
Mostly cloudy
Mostly cloudy
 Wind from calm
Wind: Calm
Temperature: 57°F , 14°C
Dew Point: 46°F , 8°C
Humidity: 67%
Barometer: 29.60 inHg , 1002.4 hPa
Clouds: Mostly cloudy
Visibility: 10 miles , 16 km
Cloud details: Mostly cloudy 9500 ft
2014/10/26 04:51 KABE 260451Z 00000KT 10SM BKN095 14/08 A2960 RMK AO2 SLP023 T01390078 402060033
KMQS - Coatesville, Pennsylvania, USA
Distance from station: WSW 39mi, 63km
Updated: Sun, 26-Oct-2014 1:35am EDT
Overcast
Overcast
 Wind from WSW
Wind: WSW 3 mph , 6 km/h
Temperature: 59°F , 15°C
Dew Point: 46°F , 8°C
Humidity: 63%
Barometer: 29.63 inHg , 1003.4 hPa
Clouds: Overcast
Visibility: 10 miles , 16 km
Cloud details: Overcast 5500 ft
2014/10/26 05:35 KMQS 260535Z AUTO 25003KT 10SM OVC055 15/08 A2963 RMK AO2
 
KSMQ - Somerville, New Jersey, USA
Distance from station: NE 40mi, 64km
Updated: Sun, 26-Oct-2014 12:53am EDT
Overcast
Overcast
 Wind from NW
Wind: NW 8 mph , 13 km/h
Temperature: 61°F , 16°C
Dew Point: 45°F , 7°C
Humidity: 55%
Barometer: 29.58 inHg , 1001.7 hPa
Clouds: Overcast
Visibility: 10 miles , 16 km
Cloud details: Mostly cloudy 5000 ft
Overcast 6000 ft
2014/10/26 04:53 KSMQ 260453Z AUTO 31007KT 10SM BKN050 OVC060 16/07 A2958 RMK AO2 SLP016 T01610072 402060017
KILG - Wilmington, Delaware, USA
Distance from station: SSW 42mi, 68km
Updated: Sun, 26-Oct-2014 12:51am EDT
Mostly cloudy
Mostly cloudy
 Wind from WSW
Wind: WSW 8 mph , 13 km/h
Temperature: 57°F , 14°C
Dew Point: 46°F , 8°C
Humidity: 67%
Barometer: 29.63 inHg , 1003.4 hPa
Clouds: Mostly cloudy
Visibility: 10 miles , 16 km
Cloud details: Partly cloudy 5500 ft
Mostly cloudy 7000 ft
Mostly cloudy 8500 ft
2014/10/26 04:51 KILG 260451Z 24007KT 10SM SCT055 BKN070 BKN085 14/08 A2963 RMK AO2 SLP035 T01440078 402110050
KRDG - Reading, Pennsylvania, USA
Distance from station: WNW 43mi, 70km
Updated: Sun, 26-Oct-2014 12:54am EDT
Overcast
Overcast
 Wind from NW
Wind: NW 9 mph , 15 km/h
Temperature: 61°F , 16°C
Dew Point: 48°F , 9°C
Humidity: 63%
Barometer: 29.61 inHg , 1002.7 hPa
Clouds: Overcast
Visibility: 10 miles , 16 km
Cloud details: Mostly cloudy 8500 ft
Overcast 11000 ft
2014/10/26 04:54 KRDG 260454Z AUTO 31008KT 10SM BKN085 OVC110 16/09 A2961 RMK AO2 SLP030 T01560089 402060050
 
KNEL - Lakehurst Nas, New Jersey, USA
Distance from station: ESE 46mi, 74km
Updated: Mon, 06-Oct-2014 4:00pm EDT
NOT Current
Clear
Clear
 Wind from S
Wind: S 15 mph , 24 km/h, Gust: 23 mph , 37 km/h
Temperature: 70°F , 21°C
Dew Point: 46°F , 8°C
Humidity: 43%
Barometer: 30.01 inHg , 1016.3 hPa
Clouds: Clear
Visibility: 10 miles , 16 km
2014/10/06 20:00 KNEL 062000Z AUTO 17013G20KT 10SM CLR 21/08 A3001 RMK AO2 SLP163 T02110083 $
KMJX - Toms River, New Jersey, USA
Distance from station: ESE 50mi, 80km
Updated: Sun, 26-Oct-2014 1:35am EDT
Overcast
Overcast
 Wind from WSW
Wind: WSW 6 mph , 9 km/h
Temperature: 55°F , 13°C
Dew Point: 45°F , 7°C
Humidity: 67%
Barometer: 29.60 inHg , 1002.4 hPa
Clouds: Overcast
Visibility: 10 miles , 16 km
Cloud details: Overcast 9500 ft
2014/10/26 05:35 KMJX 260535Z AUTO 24005KT 10SM OVC095 13/07 A2960 RMK AO1